Time,TemperatureF,DewpointF,PressureIn,WindDirection,WindDirectionDegrees,WindSpeedMPH,WindSpeedGustMPH,Humidity,HourlyPrecipIn,Conditions,Clouds,dailyrainin,SoftwareType,DateUTC
2013-04-26 00:11:00,45.1,40.0,30.34,NNE,12,0.0,0.0,83,0.00,,,0.00,weatherlink.com 1.10,2013-04-26 05:11:00,
2013-04-26 00:26:00,44.5,40.0,30.34,NNE,12,1.0,1.0,84,0.00,,,0.00,weatherlink.com 1.10,2013-04-26 05:26:00,
2013-04-26 00:41:00,44.3,40.0,30.34,NNE,12,0.0,0.0,85,0.00,,,0.00,weatherlink.com 1.10,2013-04-26 05:41:00,
2013-04-26 00:56:00,44.1,40.0,30.34,NNE,12,0.0,0.0,85,0.00,,,0.00,weatherlink.com 1.10,2013-04-26 05:56:00,
2013-04-26 01:11:00,43.4,40.0,30.34,NNE,12,0.0,0.0,86,0.00,,,0.00,weatherlink.com 1.10,2013-04-26 06:11:00,
2013-04-26 01:26:00,43.6,39.0,30.34,NNE,12,0.0,0.0,85,0.00,,,0.00,weatherlink.com 1.10,2013-04-26 06:26:00,
2013-04-26 01:41:00,44.9,40.0,30.34,NNE,12,0.0,1.0,83,0.00,,,0.00,weatherlink.com 1.10,2013-04-26 06:41:00,
2013-04-26 01:56:00,45.4,41.0,30.34,NNE,12,0.0,0.0,83,0.00,,,0.00,weatherlink.com 1.10,2013-04-26 06:56:00,
2013-04-26 02:11:00,44.6,40.0,30.34,NNE,12,0.0,0.0,84,0.00,,,0.00,weatherlink.com 1.10,2013-04-26 07:11:00,
2013-04-26 02:26:00,44.7,40.0,30.34,NNE,12,0.0,0.0,83,0.00,,,0.00,weatherlink.com 1.10,2013-04-26 07:26:00,
2013-04-26 02:41:00,45.8,40.0,30.34,NNE,12,1.0,1.0,79,0.00,,,0.00,weatherlink.com 1.10,2013-04-26 07:41:00,
2013-04-26 02:56:00,46.8,40.0,30.34,NNE,12,1.0,1.0,77,0.00,,,0.00,weatherlink.com 1.10,2013-04-26 07:56:00,
2013-04-26 03:11:00,46.9,40.0,30.34,NNE,12,1.0,1.0,77,0.00,,,0.00,weatherlink.com 1.10,2013-04-26 08:11:00,
2013-04-26 03:26:00,46.9,41.0,30.33,NNE,12,1.0,1.0,79,0.00,,,0.00,weatherlink.com 1.10,2013-04-26 08:26:00,
2013-04-26 03:41:00,47.1,41.0,30.34,NNE,12,1.0,1.0,78,0.00,,,0.00,weatherlink.com 1.10,2013-04-26 08:41:00,
2013-04-26 03:56:00,47.4,41.0,30.33,NNE,12,1.0,2.0,79,0.00,,,0.00,weatherlink.com 1.10,2013-04-26 08:56:00,
2013-04-26 04:11:00,47.5,41.0,30.33,NNE,12,0.0,1.0,78,0.00,,,0.00,weatherlink.com 1.10,2013-04-26 09:11:00,
2013-04-26 04:26:00,47.7,40.0,30.33,NNE,12,2.0,3.0,76,0.00,,,0.00,weatherlink.com 1.10,2013-04-26 09:26:00,
2013-04-26 04:41:00,48.2,41.0,30.33,NNE,12,0.0,3.0,75,0.00,,,0.00,weatherlink.com 1.10,2013-04-26 09:41:00,
2013-04-26 04:56:00,48.0,41.0,30.32,NNE,12,1.0,2.0,76,0.00,,,0.00,weatherlink.com 1.10,2013-04-26 09:56:00,
2013-04-26 05:11:00,47.8,40.0,30.32,NNE,12,1.0,2.0,75,0.00,,,0.00,weatherlink.com 1.10,2013-04-26 10:11:00,
2013-04-26 05:26:00,46.8,40.0,30.32,NNE,12,1.0,2.0,77,0.00,,,0.00,weatherlink.com 1.10,2013-04-26 10:26:00,
2013-04-26 05:41:00,46.4,40.0,30.33,NNE,12,1.0,2.0,77,0.00,,,0.00,weatherlink.com 1.10,2013-04-26 10:41:00,
2013-04-26 05:56:00,45.8,39.0,30.33,NNE,12,0.0,1.0,78,0.00,,,0.00,weatherlink.com 1.10,2013-04-26 10:56:00,
2013-04-26 06:11:00,45.4,39.0,30.32,NNE,12,1.0,2.0,79,0.00,,,0.00,weatherlink.com 1.10,2013-04-26 11:11:00,
2013-04-26 06:26:00,45.7,39.0,30.32,NNE,12,1.0,1.0,77,0.00,,,0.00,weatherlink.com 1.10,2013-04-26 11:26:00,
2013-04-26 06:41:00,45.9,39.0,30.34,NNE,12,0.0,1.0,77,0.00,,,0.00,weatherlink.com 1.10,2013-04-26 11:41:00,
2013-04-26 06:56:00,46.4,40.0,30.34,NNW,331,1.0,2.0,78,0.00,,,0.00,weatherlink.com 1.10,2013-04-26 11:56:00,
2013-04-26 07:11:00,47.5,41.0,30.35,NNE,26,0.0,2.0,79,0.00,,,0.00,weatherlink.com 1.10,2013-04-26 12:11:00,
2013-04-26 07:26:00,49.5,42.0,30.36,NE,34,1.0,3.0,75,0.00,,,0.00,weatherlink.com 1.10,2013-04-26 12:26:00,
2013-04-26 07:41:00,50.9,44.0,30.36,NE,34,3.0,3.0,77,0.00,,,0.00,weatherlink.com 1.10,2013-04-26 12:41:00,
2013-04-26 07:57:00,51.3,44.0,30.37,NE,34,2.0,3.0,75,0.00,,,0.00,weatherlink.com 1.10,2013-04-26 12:57:00,
2013-04-26 08:12:00,52.1,45.0,30.38,NE,34,0.0,2.0,76,0.00,,,0.00,weatherlink.com 1.10,2013-04-26 13:12:00,
2013-04-26 08:27:00,52.8,43.0,30.39,SE,140,3.0,5.0,69,0.00,,,0.00,weatherlink.com 1.10,2013-04-26 13:27:00,
2013-04-26 08:42:00,53.1,43.0,30.39,SSE,155,1.0,5.0,69,0.00,,,0.00,weatherlink.com 1.10,2013-04-26 13:42:00,
2013-04-26 08:57:00,53.1,42.0,30.40,SE,141,4.0,9.0,65,0.00,,,0.00,weatherlink.com 1.10,2013-04-26 13:57:00,
2013-04-26 09:12:00,53.0,42.0,30.41,SE,144,1.0,5.0,67,0.00,,,0.00,weatherlink.com 1.10,2013-04-26 14:12:00,
2013-04-26 09:27:00,53.2,42.0,30.41,SSE,168,6.0,8.0,67,0.00,,,0.00,weatherlink.com 1.10,2013-04-26 14:27:00,
2013-04-26 09:42:00,53.1,42.0,30.41,South,176,6.0,10.0,67,0.00,,,0.00,weatherlink.com 1.10,2013-04-26 14:42:00,
2013-04-26 09:57:00,53.2,42.0,30.41,SSE,161,5.0,9.0,67,0.00,,,0.00,weatherlink.com 1.10,2013-04-26 14:57:00,
2013-04-26 10:12:00,53.6,42.0,30.41,SSE,159,4.0,7.0,66,0.00,,,0.00,weatherlink.com 1.10,2013-04-26 15:12:00,
2013-04-26 10:27:00,54.0,44.0,30.41,South,171,3.0,8.0,68,0.00,,,0.00,weatherlink.com 1.10,2013-04-26 15:27:00,
2013-04-26 10:42:00,54.6,43.0,30.41,South,175,4.0,9.0,64,0.00,,,0.00,weatherlink.com 1.10,2013-04-26 15:42:00,
2013-04-26 10:57:00,55.0,42.0,30.42,South,183,9.0,11.0,62,0.00,,,0.00,weatherlink.com 1.10,2013-04-26 15:57:00,
2013-04-26 11:12:00,55.5,44.0,30.42,SSE,165,5.0,9.0,65,0.00,,,0.00,weatherlink.com 1.10,2013-04-26 16:12:00,
2013-04-26 11:27:00,56.6,44.0,30.41,South,174,6.0,9.0,63,0.00,,,0.00,weatherlink.com 1.10,2013-04-26 16:27:00,
2013-04-26 11:42:00,56.8,43.0,30.41,SSE,161,6.0,9.0,61,0.00,,,0.00,weatherlink.com 1.10,2013-04-26 16:42:00,
2013-04-26 11:57:00,57.3,44.0,30.40,SSE,154,3.0,7.0,61,0.00,,,0.00,weatherlink.com 1.10,2013-04-26 16:57:00,
2013-04-26 12:12:00,58.0,45.0,30.39,SSE,153,4.0,8.0,62,0.00,,,0.00,weatherlink.com 1.10,2013-04-26 17:12:00,
2013-04-26 12:27:00,58.4,45.0,30.39,SSE,166,6.0,11.0,61,0.00,,,0.00,weatherlink.com 1.10,2013-04-26 17:27:00,
2013-04-26 12:42:00,59.0,45.0,30.37,South,180,14.0,14.0,61,0.00,,,0.00,weatherlink.com 1.10,2013-04-26 17:42:00,
2013-04-26 12:57:00,59.8,45.0,30.36,SSW,204,6.0,14.0,58,0.00,,,0.00,weatherlink.com 1.10,2013-04-26 17:57:00,
2013-04-26 13:12:00,58.3,45.0,30.37,SSW,198,10.0,13.0,62,0.00,,,0.00,weatherlink.com 1.10,2013-04-26 18:12:00,
2013-04-26 13:27:00,58.1,47.0,30.36,SSE,162,8.0,12.0,67,0.00,,,0.00,weatherlink.com 1.10,2013-04-26 18:27:00,
2013-04-26 13:42:00,57.1,47.0,30.37,South,185,3.0,10.0,68,0.00,,,0.00,weatherlink.com 1.10,2013-04-26 18:42:00,
2013-04-26 13:57:00,56.5,47.0,30.38,South,173,5.0,9.0,71,0.00,,,0.00,weatherlink.com 1.10,2013-04-26 18:57:00,
2013-04-26 14:12:00,56.0,47.0,30.38,SSE,166,6.0,9.0,73,0.00,,,0.00,weatherlink.com 1.10,2013-04-26 19:12:00,
2013-04-26 14:27:00,55.5,47.0,30.38,South,188,5.0,12.0,73,0.00,,,0.00,weatherlink.com 1.10,2013-04-26 19:27:00,
2013-04-26 14:42:00,55.2,48.0,30.38,South,184,6.0,9.0,78,0.00,,,0.00,weatherlink.com 1.10,2013-04-26 19:42:00,
2013-04-26 14:57:00,54.9,48.0,30.38,South,170,6.0,9.0,78,0.00,,,0.00,weatherlink.com 1.10,2013-04-26 19:57:00,
2013-04-26 15:12:00,54.7,48.0,30.37,SSE,164,3.0,7.0,78,0.00,,,0.00,weatherlink.com 1.10,2013-04-26 20:12:00,
2013-04-26 15:27:00,54.8,48.0,30.34,SSE,164,3.0,6.0,78,0.00,,,0.00,weatherlink.com 1.10,2013-04-26 20:27:00,
2013-04-26 15:42:00,55.1,49.0,30.32,SSE,156,2.0,9.0,79,0.00,,,0.00,weatherlink.com 1.10,2013-04-26 20:42:00,
2013-04-26 15:57:00,55.7,50.0,30.31,SSE,156,2.0,4.0,80,0.00,,,0.00,weatherlink.com 1.10,2013-04-26 20:57:00,
2013-04-26 16:12:00,55.9,49.0,30.32,SSE,156,5.0,6.0,78,0.00,,,0.00,weatherlink.com 1.10,2013-04-26 21:12:00,
2013-04-26 16:27:00,56.2,49.0,30.31,SSE,148,7.0,11.0,76,0.00,,,0.00,weatherlink.com 1.10,2013-04-26 21:27:00,
2013-04-26 16:42:00,56.4,49.0,30.30,SSE,152,5.0,11.0,75,0.00,,,0.00,weatherlink.com 1.10,2013-04-26 21:42:00,
2013-04-26 16:57:00,56.6,49.0,30.31,SSE,154,3.0,5.0,75,0.00,,,0.00,weatherlink.com 1.10,2013-04-26 21:57:00,
2013-04-26 17:12:00,56.6,49.0,30.32,SSE,154,1.0,3.0,77,0.00,,,0.00,weatherlink.com 1.10,2013-04-26 22:12:00,
2013-04-26 17:27:00,56.8,49.0,30.32,SSE,154,2.0,4.0,75,0.00,,,0.00,weatherlink.com 1.10,2013-04-26 22:27:00,
2013-04-26 17:42:00,56.7,48.0,30.32,SE,141,5.0,10.0,73,0.00,,,0.00,weatherlink.com 1.10,2013-04-26 22:42:00,
2013-04-26 17:57:00,56.6,48.0,30.33,SE,136,4.0,7.0,73,0.00,,,0.00,weatherlink.com 1.10,2013-04-26 22:57:00,
2013-04-26 18:12:00,56.2,48.0,30.32,SSE,149,2.0,7.0,75,0.00,,,0.00,weatherlink.com 1.10,2013-04-26 23:12:00,
2013-04-26 18:27:00,55.9,48.0,30.31,SSE,149,1.0,4.0,76,0.00,,,0.00,weatherlink.com 1.10,2013-04-26 23:27:00,
2013-04-26 18:42:00,55.7,49.0,30.31,SSE,149,0.0,2.0,77,0.00,,,0.00,weatherlink.com 1.10,2013-04-26 23:42:00,
2013-04-26 19:27:00,54.6,49.0,30.31,SSE,149,1.0,1.0,80,0.00,,,0.00,weatherlink.com 1.10,2013-04-27 00:27:00,
2013-04-26 19:42:00,54.3,49.0,30.30,SSW,204,0.0,2.0,82,0.00,,,0.00,weatherlink.com 1.10,2013-04-27 00:42:00,
2013-04-26 19:58:00,54.2,49.0,30.29,SSW,203,1.0,4.0,81,0.00,,,0.00,weatherlink.com 1.10,2013-04-27 00:58:00,
2013-04-26 20:13:00,54.2,49.0,30.28,SSW,203,3.0,3.0,81,0.00,,,0.00,weatherlink.com 1.10,2013-04-27 01:13:00,
2013-04-26 20:28:00,54.0,48.0,30.26,SE,138,5.0,7.0,81,0.00,,,0.00,weatherlink.com 1.10,2013-04-27 01:28:00,
2013-04-26 20:43:00,54.0,48.0,30.27,SE,145,3.0,5.0,81,0.00,,,0.00,weatherlink.com 1.10,2013-04-27 01:43:00,
2013-04-26 20:58:00,53.7,48.0,30.30,SE,145,1.0,3.0,81,0.00,,,0.00,weatherlink.com 1.10,2013-04-27 01:58:00,
2013-04-26 21:13:00,53.7,49.0,30.34,SE,145,1.0,2.0,83,0.00,,,0.00,weatherlink.com 1.10,2013-04-27 02:13:00,
2013-04-26 21:28:00,53.7,49.0,30.37,SE,145,2.0,4.0,84,0.00,,,0.00,weatherlink.com 1.10,2013-04-27 02:28:00,
2013-04-26 21:43:00,53.7,49.0,30.34,SE,145,0.0,0.0,84,0.00,,,0.00,weatherlink.com 1.10,2013-04-27 02:43:00,
2013-04-26 21:58:00,52.8,49.0,30.30,SE,145,2.0,3.0,87,0.01,,,0.01,weatherlink.com 1.10,2013-04-27 02:58:00,
2013-04-26 22:13:00,51.7,49.0,30.32,SE,145,0.0,2.0,90,0.01,,,0.01,weatherlink.com 1.10,2013-04-27 03:13:00,
2013-04-26 22:28:00,51.4,49.0,30.30,SE,145,1.0,3.0,91,0.01,,,0.01,weatherlink.com 1.10,2013-04-27 03:28:00,
2013-04-26 22:43:00,51.2,49.0,30.32,SE,145,0.0,3.0,92,0.01,,,0.01,weatherlink.com 1.10,2013-04-27 03:43:00,
2013-04-26 22:58:00,51.1,49.0,30.32,SE,145,0.0,1.0,92,0.01,,,0.02,weatherlink.com 1.10,2013-04-27 03:58:00,
2013-04-26 23:13:00,51.1,49.0,30.31,SE,145,0.0,1.0,92,0.01,,,0.02,weatherlink.com 1.10,2013-04-27 04:13:00,
2013-04-26 23:28:00,50.8,49.0,30.30,SE,145,0.0,1.0,93,0.01,,,0.02,weatherlink.com 1.10,2013-04-27 04:28:00,
2013-04-26 23:43:00,50.9,49.0,30.32,SE,145,2.0,3.0,93,0.01,,,0.02,weatherlink.com 1.10,2013-04-27 04:43:00,
2013-04-26 23:58:00,50.8,49.0,30.32,SE,145,0.0,1.0,94,0.00,,,0.02,weatherlink.com 1.10,2013-04-27 04:58:00,